createdAt,value
2022-12-13T02:27:43.998Z,21.93
2022-12-13T02:29:30.695Z,19.00
2022-12-13T02:33:45.821Z,15.87
2022-12-13T02:35:05.109Z,16.28
2022-12-13T02:36:37.041Z,16.32
2022-12-13T02:40:38.529Z,13.47
2022-12-13T02:41:52.982Z,14.10
2022-12-13T02:43:05.742Z,13.97
2022-12-13T02:44:25.925Z,13.43
2022-12-13T02:45:47.943Z,13.28
2022-12-13T02:47:03.860Z,14.10
2022-12-13T02:48:15.593Z,13.47
2022-12-13T02:49:28.237Z,13.23
2022-12-13T02:50:39.485Z,13.50
2022-12-13T02:51:52.683Z,12.88
2022-12-13T02:53:04.782Z,14.15
2022-12-13T02:54:14.445Z,14.98
2022-12-13T02:55:28.054Z,14.28
2022-12-13T02:56:36.235Z,15.07
2022-12-13T02:57:48.978Z,15.90
2022-12-13T02:59:00.578Z,15.90
2022-12-13T03:01:44.706Z,16.05
2022-12-13T03:04:46.504Z,16.44
2022-12-13T03:06:33.738Z,16.45
2022-12-13T03:09:21.370Z,17.37
2022-12-13T03:12:12.100Z,17.93
2022-12-13T03:13:45.706Z,18.13
2022-12-13T03:16:36.413Z,17.90
2022-12-13T03:19:12.309Z,19.68
2022-12-13T03:20:25.063Z,17.98
2022-12-13T03:22:58.928Z,19.52
2022-12-13T03:24:08.703Z,19.17
2022-12-13T03:26:37.645Z,19.58
2022-12-13T03:27:46.810Z,20.47
2022-12-13T03:28:57.054Z,18.95
2022-12-13T03:30:08.843Z,19.92
2022-12-13T03:32:32.967Z,18.50
2022-12-13T03:33:42.236Z,19.05
2022-12-13T03:34:53.471Z,20.10
2022-12-13T03:36:02.968Z,19.45
2022-12-13T03:37:12.327Z,20.43
2022-12-13T03:39:37.871Z,19.13
2022-12-13T03:40:48.140Z,19.17
2022-12-13T03:42:00.938Z,19.73
2022-12-13T03:43:09.447Z,20.37
2022-12-13T03:44:18.457Z,19.40
2022-12-13T03:45:28.191Z,19.45
2022-12-13T03:46:36.783Z,21.00
2022-12-13T03:47:45.807Z,19.17
2022-12-13T03:48:55.441Z,20.08
2022-12-13T03:50:25.721Z,19.98
2022-12-13T03:51:17.984Z,16.55
2022-12-13T03:53:44.099Z,14.48
2022-12-13T03:54:53.940Z,16.00
2022-12-13T03:56:05.648Z,15.53
2022-12-13T03:57:16.178Z,17.40
2022-12-13T03:59:41.065Z,18.30
2022-12-13T04:00:49.763Z,18.23
2022-12-13T04:01:59.454Z,18.85
2022-12-13T04:03:10.275Z,19.82
2022-12-13T04:05:29.204Z,18.68
2022-12-13T04:06:38.471Z,20.08
2022-12-13T04:07:48.777Z,20.50
2022-12-13T04:08:57.357Z,20.50
2022-12-13T04:10:25.324Z,20.45
2022-12-13T04:11:42.870Z,20.92
2022-12-13T04:13:06.988Z,20.60
2022-12-13T04:14:22.555Z,21.12
2022-12-13T04:15:27.675Z,19.40
2022-12-13T04:16:36.745Z,19.90
2022-12-13T04:19:00.295Z,19.58
2022-12-13T04:21:31.833Z,20.60
2022-12-13T04:22:41.618Z,20.22
2022-12-13T04:23:50.135Z,21.03
2022-12-13T04:24:58.748Z,20.58
2022-12-13T04:26:07.750Z,20.68
2022-12-13T04:27:16.886Z,21.40
2022-12-13T04:28:26.606Z,21.02
2022-12-13T04:29:35.221Z,20.87
2022-12-13T04:30:44.438Z,21.55
2022-12-13T04:31:54.377Z,20.35
2022-12-13T04:33:04.017Z,19.35
2022-12-13T04:34:12.927Z,20.70
2022-12-13T04:36:36.258Z,18.83
2022-12-13T04:37:45.744Z,18.73
2022-12-13T04:38:54.893Z,20.13
2022-12-13T04:40:04.708Z,20.13
2022-12-13T04:41:17.670Z,21.75
2022-12-13T04:42:27.327Z,19.92
2022-12-13T04:43:37.035Z,22.93
2022-12-13T04:44:47.186Z,22.70
2022-12-13T04:47:10.946Z,22.32
2022-12-13T04:48:31.084Z,21.55
2022-12-13T04:49:31.449Z,21.10
2022-12-13T04:50:42.311Z,20.05
2022-12-13T04:51:53.632Z,20.83
2022-12-13T04:54:24.222Z,19.80
2022-12-13T04:55:28.949Z,20.65
2022-12-13T04:57:53.373Z,20.72
2022-12-13T04:59:02.400Z,22.28
2022-12-13T05:00:13.217Z,23.20
2022-12-13T05:01:21.871Z,23.05
2022-12-13T05:02:31.486Z,23.15
2022-12-13T05:03:41.295Z,23.48
2022-12-13T05:04:54.329Z,23.35
2022-12-13T05:07:23.851Z,23.60
2022-12-13T05:08:33.569Z,23.13
2022-12-13T05:09:43.305Z,22.08
2022-12-13T05:10:54.691Z,22.82
2022-12-13T05:12:05.839Z,21.60
2022-12-13T05:13:16.895Z,21.36
2022-12-13T05:14:25.771Z,21.63
2022-12-13T05:15:35.573Z,22.73
2022-12-13T05:16:51.234Z,22.43
2022-12-13T05:18:10.618Z,20.63
2022-12-13T05:19:15.377Z,20.83
2022-12-13T05:21:39.711Z,22.45
2022-12-13T05:22:49.271Z,21.13
2022-12-13T05:23:57.896Z,21.97
2022-12-13T05:25:07.954Z,20.93
2022-12-13T05:26:17.206Z,17.35
2022-12-13T05:28:41.032Z,22.02
2022-12-13T05:29:49.554Z,20.13
2022-12-13T05:32:18.216Z,22.18
2022-12-13T05:33:26.945Z,18.65
2022-12-13T05:36:11.068Z,19.55
2022-12-13T05:38:35.616Z,17.87
2022-12-13T05:39:46.920Z,18.02
2022-12-13T05:40:55.900Z,19.43
2022-12-13T05:42:05.746Z,20.10
2022-12-13T05:43:21.958Z,20.18
2022-12-13T05:44:25.196Z,21.20
2022-12-13T05:45:34.724Z,20.98
2022-12-13T05:46:44.502Z,20.92
2022-12-13T05:47:53.593Z,21.23
2022-12-13T05:49:03.287Z,22.08
2022-12-13T05:50:14.794Z,21.23
2022-12-13T05:51:24.916Z,19.80
2022-12-13T05:52:34.614Z,18.22
2022-12-13T05:53:43.429Z,17.82
2022-12-13T05:54:56.110Z,18.35
2022-12-13T05:56:08.870Z,19.45
2022-12-13T05:58:28.196Z,21.32
2022-12-13T05:59:38.722Z,21.37
2022-12-13T06:00:47.670Z,22.93
2022-12-13T06:01:56.435Z,22.82
2022-12-13T06:03:05.426Z,24.22
2022-12-13T06:04:22.267Z,21.10
2022-12-13T06:05:24.970Z,20.13
2022-12-13T06:06:36.601Z,20.43
2022-12-13T06:07:46.141Z,20.43
2022-12-13T06:08:55.301Z,19.60
2022-12-13T06:10:10.356Z,19.30
2022-12-13T06:11:32.184Z,20.72
2022-12-13T06:12:31.861Z,23.32
2022-12-13T06:13:43.944Z,23.24
2022-12-13T06:14:52.569Z,21.20
2022-12-13T06:16:05.920Z,22.30
2022-12-13T06:17:16.522Z,22.97
2022-12-13T06:18:33.229Z,20.40
2022-12-13T06:19:42.137Z,19.62
2022-12-13T06:22:17.100Z,22.37
2022-12-13T06:23:28.557Z,21.95
2022-12-13T06:24:38.488Z,22.88
2022-12-13T06:25:51.530Z,23.70
2022-12-13T06:27:00.621Z,25.47
2022-12-13T06:28:09.932Z,23.17
2022-12-13T06:29:23.714Z,23.40
2022-12-13T06:30:33.276Z,23.68
2022-12-13T06:31:42.948Z,23.68
2022-12-13T06:32:52.467Z,26.37
2022-12-13T06:34:14.465Z,26.70
2022-12-13T06:35:27.321Z,25.93
2022-12-13T06:36:25.670Z,26.28
2022-12-13T06:37:35.198Z,29.23
2022-12-13T06:38:44.740Z,26.95
2022-12-13T06:39:54.479Z,25.62
2022-12-13T06:41:09.456Z,25.95
2022-12-13T06:42:22.164Z,26.32
2022-12-13T06:43:30.245Z,24.73
2022-12-13T06:44:41.797Z,26.38
2022-12-13T06:45:51.292Z,29.12
2022-12-13T06:47:10.707Z,29.90
2022-12-13T06:48:18.736Z,29.40
2022-12-13T06:49:26.225Z,28.30
2022-12-13T06:50:37.708Z,29.50
2022-12-13T06:51:46.753Z,30.10
2022-12-13T06:52:56.389Z,29.25
2022-12-13T06:54:06.146Z,27.50
2022-12-13T06:56:36.104Z,28.38
2022-12-13T06:57:44.614Z,25.65
2022-12-13T06:58:53.433Z,26.37
2022-12-13T07:00:05.901Z,24.83
2022-12-13T10:49:59.116Z,13.05
2022-12-13T10:51:12.450Z,13.55
2022-12-13T10:52:34.262Z,14.08
2022-12-13T10:56:49.698Z,15.47
2022-12-13T10:59:36.304Z,16.00
2022-12-13T11:03:34.032Z,17.15
2022-12-13T11:04:42.808Z,17.30
2022-12-13T11:07:26.136Z,17.90
2022-12-13T11:08:36.234Z,18.40
2022-12-13T11:09:44.897Z,19.82
2022-12-13T11:11:00.121Z,21.82
2022-12-13T11:12:15.804Z,22.68
2022-12-13T11:13:38.052Z,22.50
2022-12-13T11:15:00.309Z,21.93
2022-12-13T11:17:56.020Z,22.83
2022-12-13T11:19:25.340Z,23.55
2022-12-13T11:20:37.697Z,26.13
2022-12-13T11:21:50.268Z,28.13
2022-12-13T11:23:06.287Z,26.50
2022-12-13T11:25:45.797Z,28.30
2022-12-13T11:28:30.034Z,37.23
2022-12-13T11:34:32.261Z,29.83
2022-12-13T11:37:34.866Z,24.90
2022-12-13T11:40:31.053Z,24.57
2022-12-13T11:41:49.162Z,24.50
2022-12-13T11:45:06.496Z,27.27
2022-12-13T11:48:08.770Z,29.90
2022-12-13T11:49:40.932Z,27.55
2022-12-13T11:50:52.971Z,28.45
2022-12-13T11:53:41.564Z,29.82
2022-12-13T11:55:00.065Z,28.72
2022-12-13T11:56:24.016Z,27.00
2022-12-13T11:58:05.160Z,26.48
2022-12-13T12:00:36.647Z,27.13
2022-12-13T12:01:53.032Z,27.80
2022-12-13T12:03:20.631Z,29.40
2022-12-13T12:07:48.274Z,28.68
2022-12-13T12:10:20.785Z,28.60
2022-12-13T12:11:45.760Z,28.65
2022-12-13T12:14:45.024Z,22.67
2022-12-13T12:16:27.176Z,23.12
2022-12-13T12:17:42.249Z,23.15
2022-12-13T12:18:46.266Z,25.50
2022-12-13T12:19:57.905Z,26.33
2022-12-13T12:21:23.057Z,31.90
2022-12-13T12:22:38.652Z,33.37
2022-12-13T12:24:08.981Z,27.40
2022-12-13T12:25:24.161Z,25.60
2022-12-13T12:26:54.231Z,25.82
2022-12-13T12:28:44.385Z,26.28
2022-12-13T12:30:13.541Z,29.32
2022-12-13T12:33:14.838Z,28.82
2022-12-13T12:34:42.272Z,28.42
2022-12-13T12:36:11.113Z,28.47
2022-12-13T12:37:31.544Z,27.57
2022-12-13T12:40:23.971Z,24.92
2022-12-13T12:41:54.595Z,24.50
2022-12-13T12:43:25.374Z,22.03
2022-12-13T12:46:19.681Z,24.32
2022-12-13T12:49:43.751Z,24.50
2022-12-13T12:51:11.539Z,27.28
2022-12-13T12:52:30.672Z,30.27
2022-12-13T12:55:13.330Z,34.48
2022-12-13T12:56:49.866Z,33.37
2022-12-13T12:59:46.193Z,27.97
2022-12-13T13:01:36.110Z,27.85
2022-12-13T13:03:05.224Z,25.70
2022-12-13T13:04:22.246Z,24.60
2022-12-13T13:08:21.777Z,22.32
2022-12-13T13:09:32.170Z,20.98
2022-12-13T13:10:49.619Z,21.45
2022-12-13T13:11:57.681Z,22.03
2022-12-13T13:13:33.053Z,21.77
2022-12-13T13:15:57.645Z,21.20
2022-12-13T13:17:26.415Z,21.50
2022-12-13T13:18:49.999Z,20.35
2022-12-13T13:20:23.752Z,20.12
2022-12-13T13:21:36.410Z,17.90
2022-12-13T13:24:24.189Z,18.58
2022-12-13T13:25:48.813Z,19.45
2022-12-13T13:26:57.097Z,19.73
2022-12-13T13:28:17.807Z,18.57
2022-12-13T13:29:31.872Z,20.10
2022-12-13T13:33:49.716Z,20.80
2022-12-13T13:36:44.119Z,19.67
2022-12-13T13:37:52.635Z,20.35
2022-12-13T13:39:02.044Z,19.28
2022-12-13T13:40:34.366Z,21.47
2022-12-13T13:42:06.821Z,19.60
2022-12-13T13:44:46.759Z,20.47
2022-12-13T13:46:11.860Z,20.62
2022-12-13T13:47:24.165Z,20.07
2022-12-13T13:49:03.553Z,20.43
2022-12-13T13:52:24.463Z,20.55
2022-12-13T13:53:26.366Z,19.78
2022-12-13T13:54:53.003Z,19.27
2022-12-13T14:02:13.222Z,19.60
2022-12-13T14:03:34.106Z,19.80
2022-12-13T14:06:37.075Z,20.95
2022-12-13T14:08:13.107Z,19.38
2022-12-13T14:09:42.305Z,20.13
2022-12-13T14:12:29.975Z,22.25
2022-12-13T14:14:00.805Z,23.78
2022-12-13T14:15:36.925Z,19.63
2022-12-13T14:16:56.289Z,16.97
2022-12-13T14:20:11.462Z,17.30
2022-12-13T14:25:07.217Z,17.37
2022-12-13T14:26:38.770Z,18.43
2022-12-13T14:28:00.655Z,18.03
2022-12-13T14:29:19.348Z,19.18
2022-12-13T14:30:29.811Z,19.70
2022-12-13T14:31:47.116Z,19.95
2022-12-13T14:32:57.953Z,20.40
2022-12-13T14:35:32.195Z,19.26
2022-12-13T18:11:33.418Z,13.90
2022-12-13T18:12:41.700Z,12.00
2022-12-13T18:13:54.927Z,11.73
2022-12-13T18:15:00.950Z,12.38
2022-12-13T18:16:12.369Z,10.58
2022-12-13T18:17:22.640Z,10.75
2022-12-13T18:18:32.524Z,9.45
2022-12-13T18:19:41.392Z,9.12
2022-12-13T18:20:50.095Z,8.57
2022-12-13T18:21:59.101Z,7.30
2022-12-13T18:23:07.759Z,7.13
2022-12-13T18:24:16.277Z,7.53
2022-12-13T18:25:25.212Z,7.50
2022-12-13T18:26:34.740Z,6.25
2022-12-13T18:27:43.282Z,6.13
2022-12-13T18:28:52.766Z,5.45
2022-12-13T18:30:02.373Z,6.13
2022-12-13T18:32:50.720Z,6.52
2022-12-13T18:33:59.361Z,5.60
2022-12-13T18:35:08.138Z,6.30
2022-12-13T18:36:21.624Z,5.60
2022-12-13T18:37:30.475Z,5.37
2022-12-13T18:38:44.471Z,6.25
2022-12-13T18:39:54.976Z,5.45
2022-12-13T18:42:22.835Z,6.12
2022-12-13T18:43:32.569Z,5.72
2022-12-13T18:44:54.403Z,6.25
2022-12-13T18:45:55.390Z,5.68
2022-12-13T18:47:04.456Z,6.03
2022-12-13T18:48:14.202Z,4.98
2022-12-13T18:49:23.648Z,5.87
2022-12-13T18:50:34.953Z,6.43
2022-12-13T18:51:43.951Z,8.28
2022-12-13T18:52:52.660Z,7.73
2022-12-13T18:54:01.565Z,7.08
2022-12-13T18:55:10.708Z,5.98
2022-12-13T18:56:20.847Z,6.67
2022-12-13T18:57:29.393Z,6.38
2022-12-13T18:58:39.652Z,7.18
2022-12-13T18:59:54.290Z,6.16
2022-12-13T19:01:01.353Z,6.23
2022-12-13T19:02:14.971Z,121.88
2022-12-13T19:04:40.944Z,28.56
2022-12-13T19:05:56.808Z,12.85
2022-12-13T19:07:06.257Z,7.97
2022-12-13T19:08:15.387Z,6.60
2022-12-13T19:09:24.436Z,5.80
2022-12-13T19:10:35.506Z,5.70
2022-12-13T19:11:46.566Z,6.23
2022-12-13T19:12:57.625Z,6.05
2022-12-13T19:15:24.595Z,5.97
2022-12-13T19:17:53.146Z,6.38
2022-12-13T19:19:02.355Z,6.57
2022-12-13T19:20:12.776Z,6.57
2022-12-13T19:21:26.952Z,6.90
2022-12-13T19:23:57.840Z,6.92
2022-12-13T19:25:07.664Z,6.83
2022-12-13T19:26:20.784Z,5.53
2022-12-13T19:28:42.914Z,6.28
2022-12-13T19:29:54.332Z,4.82
2022-12-13T19:31:08.408Z,5.53
2022-12-13T19:32:19.485Z,4.87
2022-12-13T19:33:33.369Z,5.32
2022-12-13T19:35:58.409Z,5.28
2022-12-13T19:37:09.044Z,5.95
2022-12-13T19:38:19.221Z,5.50
2022-12-13T19:39:28.508Z,4.90
2022-12-13T19:40:42.034Z,4.97
2022-12-13T19:41:52.960Z,4.30
2022-12-13T19:43:04.871Z,5.77
2022-12-13T19:44:18.608Z,3.92
2022-12-13T19:45:28.703Z,4.52
2022-12-13T19:46:38.988Z,5.30
2022-12-13T19:47:56.883Z,5.15
2022-12-13T19:49:14.791Z,4.77
2022-12-13T19:51:46.508Z,5.15
2022-12-13T19:52:56.397Z,5.10
2022-12-13T19:54:13.541Z,5.60
2022-12-13T19:55:29.025Z,4.95
2022-12-13T19:56:39.029Z,6.65
2022-12-13T19:57:56.898Z,5.42
2022-12-13T19:59:08.582Z,6.28
2022-12-13T20:00:21.656Z,5.68
2022-12-13T20:02:52.123Z,5.55
2022-12-13T20:04:03.556Z,5.72
2022-12-13T20:05:15.053Z,5.92
2022-12-13T20:06:25.340Z,6.58
2022-12-13T20:07:34.489Z,5.97
2022-12-13T20:10:00.303Z,6.05
2022-12-13T20:11:12.632Z,5.50
2022-12-13T20:12:24.302Z,5.70
2022-12-13T20:14:56.782Z,5.74
2022-12-13T20:17:23.928Z,5.55
2022-12-13T20:19:55.623Z,6.20
2022-12-13T20:22:28.116Z,6.22
2022-12-13T20:23:40.589Z,6.42
2022-12-13T20:24:50.597Z,6.57
2022-12-13T20:26:03.903Z,7.50
2022-12-13T20:27:17.992Z,7.05
2022-12-13T20:29:48.697Z,6.85
2022-12-13T20:32:33.995Z,6.25
2022-12-13T20:37:31.057Z,6.82
2022-12-13T20:38:45.054Z,7.15
2022-12-13T20:39:55.622Z,7.42
2022-12-13T20:41:10.309Z,7.72
2022-12-13T20:42:22.949Z,7.12
2022-12-13T20:43:37.962Z,7.20
2022-12-13T20:44:49.235Z,6.70
2022-12-13T20:47:28.025Z,7.92
2022-12-13T20:48:39.094Z,6.70
2022-12-13T20:49:49.082Z,6.15
2022-12-13T20:51:09.884Z,6.70
2022-12-13T20:52:21.685Z,7.13
2022-12-13T20:53:35.539Z,6.52
2022-12-13T20:54:44.948Z,6.85
2022-12-13T20:56:02.249Z,6.45
2022-12-13T20:58:36.812Z,6.52
2022-12-13T20:59:43.355Z,6.47
2022-12-13T21:00:53.294Z,6.93
2022-12-13T21:02:02.410Z,6.98
2022-12-13T21:03:11.304Z,6.65
2022-12-13T21:04:20.742Z,7.05
2022-12-13T21:05:31.269Z,7.66
2022-12-13T21:06:42.393Z,7.52
2022-12-13T21:08:11.202Z,7.27
2022-12-13T21:10:35.051Z,8.00
2022-12-13T21:11:46.637Z,8.20
2022-12-13T21:12:55.287Z,7.30
2022-12-13T21:14:24.688Z,8.73
2022-12-13T21:15:33.312Z,8.72
2022-12-13T21:16:48.408Z,8.15
2022-12-13T21:17:58.008Z,7.78
2022-12-13T21:19:09.445Z,7.22
2022-12-13T21:20:18.561Z,7.22
2022-12-13T21:21:28.753Z,8.35
2022-12-13T21:23:54.982Z,7.28
2022-12-13T21:25:04.544Z,7.75
2022-12-13T21:26:13.500Z,7.33
2022-12-13T21:27:23.087Z,7.42
2022-12-13T21:28:33.292Z,7.75
2022-12-13T21:29:42.840Z,7.13
2022-12-13T21:31:07.795Z,8.07
2022-12-13T21:32:17.353Z,7.27
2022-12-13T21:33:27.545Z,7.02
2022-12-13T21:34:36.706Z,7.50
2022-12-13T21:35:45.248Z,7.48
2022-12-13T21:36:54.061Z,7.82
2022-12-13T21:38:05.434Z,7.27
2022-12-13T21:39:18.806Z,7.83
2022-12-13T21:40:29.227Z,7.28
2022-12-13T21:41:39.518Z,7.02
2022-12-13T21:42:48.029Z,7.55
2022-12-13T21:43:57.193Z,7.90
2022-12-13T21:45:07.201Z,7.08
2022-12-13T21:46:18.944Z,7.60
2022-12-13T21:47:28.179Z,7.33
2022-12-13T21:48:40.301Z,7.05
2022-12-13T21:49:49.155Z,7.40
2022-12-13T21:50:58.486Z,7.98
2022-12-13T21:52:07.098Z,7.77
2022-12-13T21:53:16.112Z,7.52
2022-12-13T21:54:24.627Z,8.42
2022-12-13T21:55:40.481Z,7.77
2022-12-13T21:57:02.437Z,7.85
2022-12-13T21:58:30.427Z,7.82
2022-12-13T22:00:54.840Z,7.47
2022-12-13T22:02:15.151Z,7.23
2022-12-13T22:04:41.302Z,7.15
2022-12-13T22:05:50.760Z,7.45
2022-12-13T22:07:00.364Z,7.42
2022-12-13T22:08:09.449Z,7.53
2022-12-13T22:09:18.464Z,7.93
2022-12-13T22:10:27.309Z,7.03
2022-12-13T22:11:36.423Z,8.00
2022-12-13T22:12:46.159Z,7.70
2022-12-13T22:13:56.787Z,7.42
2022-12-13T22:16:25.751Z,7.10
2022-12-13T22:17:37.838Z,7.47
2022-12-13T22:18:46.740Z,7.80
2022-12-13T22:19:56.412Z,7.50
2022-12-13T22:21:06.967Z,7.53
2022-12-13T22:22:17.415Z,8.25
2022-12-13T22:23:26.984Z,7.40
2022-12-13T22:24:37.636Z,7.50
2022-12-13T22:25:46.574Z,7.25
2022-12-13T22:26:57.183Z,7.22
2022-12-13T22:28:05.687Z,6.70
2022-12-13T22:29:15.149Z,7.60
2022-12-13T22:30:25.547Z,6.97
2022-12-13T22:31:34.184Z,7.30
2022-12-13T22:32:43.833Z,7.72
2022-12-13T22:33:52.868Z,7.70
2022-12-13T22:35:01.732Z,7.82
2022-12-13T22:36:11.638Z,8.25
2022-12-13T22:37:20.375Z,7.92
2022-12-13T22:38:29.798Z,8.18
2022-12-13T22:39:39.590Z,8.28
2022-12-13T22:40:48.870Z,8.08
2022-12-13T22:41:57.423Z,7.37
2022-12-13T22:43:06.496Z,8.40
2022-12-13T22:44:17.113Z,8.35
2022-12-13T22:45:26.813Z,7.62
2022-12-13T22:46:36.360Z,8.03
2022-12-13T22:47:47.073Z,8.25
2022-12-13T22:48:57.619Z,7.57
2022-12-13T22:50:07.770Z,7.97
2022-12-13T22:51:17.597Z,8.44
2022-12-13T22:52:32.015Z,8.25
2022-12-13T22:53:40.969Z,8.20
2022-12-13T22:54:51.566Z,8.25
2022-12-13T22:57:27.710Z,7.63
2022-12-13T22:58:38.487Z,7.22
2022-12-13T22:59:49.297Z,8.02
2022-12-13T23:00:58.429Z,7.98
2022-12-13T23:02:11.235Z,8.32
2022-12-13T23:03:19.956Z,8.18
2022-12-13T23:04:28.947Z,8.12
2022-12-13T23:06:53.994Z,8.25
2022-12-13T23:09:17.803Z,8.03
2022-12-13T23:10:46.321Z,8.88
2022-12-13T23:12:13.376Z,8.60
2022-12-13T23:13:22.391Z,9.10
2022-12-13T23:14:33.376Z,8.70
2022-12-13T23:15:47.587Z,9.08
2022-12-13T23:16:53.908Z,9.02
2022-12-13T23:18:04.081Z,9.55
2022-12-13T23:20:27.089Z,8.17
2022-12-13T23:21:36.700Z,9.38
2022-12-13T23:22:45.234Z,8.68
2022-12-13T23:23:56.519Z,8.80
2022-12-13T23:25:07.128Z,9.60
2022-12-13T23:26:20.687Z,9.57
2022-12-13T23:27:29.767Z,9.02
2022-12-13T23:28:41.099Z,9.47
2022-12-13T23:29:51.361Z,9.65
2022-12-13T23:31:01.641Z,9.82
2022-12-13T23:32:12.780Z,10.38
2022-12-13T23:33:22.226Z,10.75
2022-12-13T23:34:32.889Z,10.45
2022-12-13T23:35:42.484Z,10.02
2022-12-13T23:36:51.698Z,9.95
2022-12-13T23:38:01.235Z,10.15
2022-12-13T23:39:11.045Z,9.55
2022-12-13T23:40:19.670Z,9.53
2022-12-13T23:41:33.921Z,9.67
2022-12-13T23:42:42.627Z,9.53
2022-12-13T23:43:55.144Z,10.30
2022-12-13T23:45:05.672Z,10.02
2022-12-13T23:47:33.855Z,9.15
2022-12-13T23:48:44.299Z,8.35
2022-12-13T23:49:52.799Z,9.55
2022-12-13T23:51:04.445Z,9.50
2022-12-13T23:52:14.596Z,10.40
2022-12-13T23:53:24.303Z,10.30
2022-12-13T23:54:33.357Z,9.45
2022-12-13T23:55:42.911Z,10.10
2022-12-13T23:56:54.061Z,10.45
2022-12-13T23:58:03.373Z,10.10
2022-12-13T23:59:13.430Z,10.73
